Time;durP1;ratioP1;P1;durP2;ratioP2;P2;SDS_P1;SDS_P2;PMS_P1;PMS_P2;Temp;Humidity;BMP_temperature;BMP_pressure;BME280_temperature;BME280_humidity;BME280_pressure;Samples;Min_cycle;Max_cycle;Signal;HPM_P1;HPM_P2
2022/05/09 00:01:22;;;;;;;4.32;1.35;;;21.00;51.70;;;;;;5012383;28;20041;-56
2022/05/09 00:03:47;;;;;;;4.90;0.98;;;20.90;51.60;;;;;;5012730;28;20481;-57
2022/05/09 00:06:13;;;;;;;6.32;1.38;;;20.90;51.70;;;;;;5012982;28;20081;-56
2022/05/09 00:08:41;;;;;;;4.00;0.98;;;20.90;51.60;;;;;;5011818;28;20046;-57
2022/05/09 00:11:07;;;;;;;;;;;20.90;51.70;;;;;;5013116;28;20041;-56
2022/05/09 00:13:32;;;;;;;5.50;1.17;;;20.90;51.50;;;;;;5012602;28;20014;-57
2022/05/09 00:15:58;;;;;;;4.57;1.05;;;20.90;51.70;;;;;;5011802;28;20061;-57
2022/05/09 00:18:23;;;;;;;4.22;1.20;;;20.90;51.60;;;;;;5012892;28;20081;-56
2022/05/09 00:20:49;;;;;;;5.85;1.20;;;20.90;51.60;;;;;;5012429;28;20516;-57
2022/05/09 00:23:14;;;;;;;4.68;1.20;;;20.80;52.30;;;;;;5011935;28;20050;-57
2022/05/09 00:25:40;;;;;;;4.00;1.10;;;20.90;51.60;;;;;;5012317;28;20042;-57
2022/05/09 00:28:06;;;;;;;5.53;1.00;;;20.90;51.60;;;;;;5012737;28;20505;-57
2022/05/09 00:30:32;;;;;;;3.78;0.85;;;20.80;51.60;;;;;;5012030;28;20046;-56
2022/05/09 00:32:58;;;;;;;4.03;1.05;;;20.80;51.60;;;;;;5012447;28;20072;-57
2022/05/09 00:35:23;;;;;;;5.10;1.33;;;20.80;51.60;;;;;;5012837;28;20041;-56
2022/05/09 00:37:49;;;;;;;5.43;1.15;;;20.80;51.60;;;;;;5011365;28;20041;-57
2022/05/09 00:40:15;;;;;;;6.22;1.25;;;20.80;51.60;;;;;;5012674;28;20074;-57
2022/05/09 00:42:51;;;;;;;4.43;1.23;;;20.80;51.60;;;;;;5011827;28;20046;-56
2022/05/09 00:45:17;;;;;;;3.83;1.00;;;20.80;51.60;;;;;;5012769;28;20132;-56
2022/05/09 00:47:43;;;;;;;6.35;1.30;;;20.80;51.60;;;;;;5012471;28;20042;-57
2022/05/09 00:50:10;;;;;;;3.45;1.00;;;20.80;51.60;;;;;;5011704;28;20528;-56
2022/05/09 00:52:52;;;;;;;4.93;1.23;;;20.80;51.60;;;;;;5011423;28;20152;-57
2022/05/09 00:55:27;;;;;;;3.65;1.17;;;20.80;51.60;;;;;;5011314;28;20041;-57
2022/05/09 00:58:03;;;;;;;4.18;1.25;;;20.70;51.50;;;;;;5010302;28;20053;-57
2022/05/09 01:00:28;;;;;;;4.20;1.00;;;20.70;51.50;;;;;;5011938;28;20050;-56
2022/05/09 01:02:59;;;;;;;2.60;1.05;;;20.70;51.50;;;;;;5015729;28;20057;-57
2022/05/09 01:05:25;;;;;;;4.25;1.17;;;20.70;51.50;;;;;;5014312;28;20044;-57
2022/05/09 01:07:51;;;;;;;4.97;1.23;;;20.70;51.50;;;;;;5015961;28;20038;-57
2022/05/09 01:10:17;;;;;;;3.83;1.23;;;20.70;51.50;;;;;;5014650;28;20137;-57
2022/05/09 01:12:42;;;;;;;4.70;1.20;;;20.70;51.50;;;;;;5014866;28;20057;-56
2022/05/09 01:15:10;;;;;;;2.47;1.10;;;20.70;51.50;;;;;;5014969;28;20045;-57
2022/05/09 01:17:39;;;;;;;4.13;1.13;;;20.70;51.50;;;;;;5016059;28;20050;-57
2022/05/09 01:20:06;;;;;;;4.00;1.00;;;20.70;51.50;;;;;;5014769;28;20374;-57
2022/05/09 01:22:34;;;;;;;4.43;1.00;;;20.70;51.50;;;;;;5015833;28;20081;-56
2022/05/09 01:25:02;;;;;;;4.03;1.00;;;20.70;51.50;;;;;;5014542;28;20121;-57
2022/05/09 01:27:29;;;;;;;2.33;0.90;;;20.70;51.50;;;;;;5015747;28;20374;-57
2022/05/09 01:30:19;;;;;;;3.67;1.08;;;20.60;51.40;;;;;;5015543;28;20077;-56
2022/05/09 01:32:59;;;;;;;3.83;1.42;;;20.60;51.40;;;;;;5014826;28;20038;-57
2022/05/09 01:35:34;;;;;;;3.30;1.02;;;20.60;51.50;;;;;;5015643;28;20046;-57
2022/05/09 01:38:18;;;;;;;2.92;0.95;;;20.60;51.50;;;;;;5014181;28;20057;-57
2022/05/09 01:40:43;;;;;;;5.10;1.10;;;20.60;51.50;;;;;;5013299;28;20505;-57
2022/05/09 01:43:09;;;;;;;4.05;0.80;;;20.60;51.60;;;;;;5015718;28;20077;-56
2022/05/09 01:45:34;;;;;;;4.75;1.25;;;20.60;51.60;;;;;;5015483;28;20125;-57
2022/05/09 01:50:44;;;;;;;3.40;1.17;;;20.50;51.50;;;;;;5014770;28;20140;-56
2022/05/09 01:53:10;;;;;;;3.30;1.00;;;20.50;51.50;;;;;;5014659;28;20124;-57
2022/05/09 01:55:36;;;;;;;3.08;0.90;;;20.50;51.50;;;;;;5015248;28;20437;-57
2022/05/09 01:58:01;;;;;;;4.85;1.20;;;20.50;51.50;;;;;;5014929;28;20478;-57
2022/05/09 02:00:28;;;;;;;4.03;1.13;;;20.50;51.60;;;;;;5014220;28;20584;-56
2022/05/09 02:02:54;;;;;;;4.90;1.10;;;20.50;51.50;;;;;;5013593;28;20050;-57
2022/05/09 02:05:19;;;;;;;4.93;1.10;;;20.50;51.60;;;;;;5014461;28;20065;-57
2022/05/09 02:07:45;;;;;;;4.28;1.00;;;20.50;51.60;;;;;;5013960;28;20058;-57
2022/05/09 02:10:11;;;;;;;2.53;1.17;;;20.50;51.50;;;;;;5014842;28;20413;-57
2022/05/09 02:12:36;;;;;;;2.50;0.95;;;20.50;51.60;;;;;;5014326;28;20054;-57
2022/05/09 02:15:02;;;;;;;5.15;1.63;;;20.50;51.60;;;;;;5013939;28;20042;-57
2022/05/09 02:17:29;;;;;;;3.55;1.10;;;20.50;52.30;;;;;;5014966;28;20468;-57
2022/05/09 02:19:55;;;;;;;3.70;1.13;;;20.50;51.70;;;;;;5014346;28;20057;-57
2022/05/09 02:22:20;;;;;;;4.43;1.10;;;20.40;51.60;;;;;;5013951;28;20386;-57
2022/05/09 02:24:46;;;;;;;3.17;0.90;;;20.50;51.60;;;;;;5014556;28;20049;-57
2022/05/09 02:27:12;;;;;;;3.30;1.13;;;20.40;51.60;;;;;;5014619;28;20096;-57
2022/05/09 02:29:42;;;;;;;3.20;1.05;;;20.40;51.60;;;;;;5013944;28;20045;-57
2022/05/09 02:32:09;;;;;;;4.10;1.13;;;20.40;51.60;;;;;;5014836;28;20149;-56
2022/05/09 02:34:34;;;;;;;3.42;1.00;;;20.40;51.60;;;;;;5014129;28;20052;-57
2022/05/09 02:37:00;;;;;;;4.03;1.27;;;20.40;51.60;;;;;;5013691;28;20129;-57
2022/05/09 02:39:25;;;;;;;2.40;0.98;;;20.40;51.70;;;;;;5014481;28;20050;-56
2022/05/09 02:41:51;;;;;;;2.80;0.90;;;20.40;51.50;;;;;;5014285;28;20048;-57
2022/05/09 02:44:16;;;;;;;3.35;1.00;;;20.40;51.50;;;;;;5013614;28;20046;-57
2022/05/09 02:46:43;;;;;;;3.85;1.10;;;20.40;51.40;;;;;;5014203;28;20053;-56
2022/05/09 02:49:09;;;;;;;5.18;1.20;;;20.40;51.40;;;;;;5014105;28;20494;-56
2022/05/09 02:51:35;;;;;;;3.92;1.10;;;20.40;51.30;;;;;;5013248;28;20402;-57
2022/05/09 02:54:01;;;;;;;2.85;0.82;;;20.40;51.30;;;;;;5014008;28;20046;-56
2022/05/09 02:56:26;;;;;;;2.00;0.77;;;20.40;51.30;;;;;;5013360;28;20046;-57
2022/05/09 02:58:52;;;;;;;3.45;1.10;;;20.40;51.20;;;;;;5013666;28;20072;-57
2022/05/09 03:01:17;;;;;;;2.90;0.93;;;20.40;51.30;;;;;;5014269;28;20168;-56
2022/05/09 03:06:27;;;;;;;3.78;1.17;;;20.40;51.90;;;;;;5013755;28;20454;-57
2022/05/09 03:08:53;;;;;;;4.35;1.10;;;20.40;51.20;;;;;;5013679;28;20046;-56
2022/05/09 03:11:18;;;;;;;4.15;1.10;;;20.40;51.30;;;;;;5012743;28;20046;-57
2022/05/09 03:13:44;;;;;;;4.55;1.63;;;20.40;51.20;;;;;;5013585;28;20046;-57
2022/05/09 03:16:10;;;;;;;2.53;1.02;;;20.40;51.30;;;;;;5013458;28;20045;-57
2022/05/09 03:18:36;;;;;;;4.90;1.00;;;20.50;51.40;;;;;;5013179;28;20046;-57
2022/05/09 03:21:02;;;;;;;2.88;1.13;;;20.50;51.40;;;;;;5013263;28;20038;-57
2022/05/09 03:23:27;;;;;;;3.47;1.40;;;20.50;51.40;;;;;;5012751;28;20517;-57
2022/05/09 03:25:53;;;;;;;2.13;0.80;;;20.50;51.40;;;;;;5012519;28;20060;-57
2022/05/09 03:28:24;;;;;;;2.85;0.90;;;20.50;51.40;;;;;;5013516;28;20045;-57
2022/05/09 03:30:50;;;;;;;4.88;1.00;;;20.50;51.40;;;;;;5013319;28;20100;-57
2022/05/09 03:33:16;;;;;;;2.47;0.80;;;20.50;51.50;;;;;;5012833;28;20037;-57
2022/05/09 03:35:42;;;;;;;3.00;0.90;;;20.50;51.50;;;;;;5013199;28;20057;-57
2022/05/09 03:38:08;;;;;;;3.20;0.85;;;20.50;51.50;;;;;;5013390;28;20081;-57
2022/05/09 03:40:34;;;;;;;3.85;1.02;;;20.50;51.50;;;;;;5012449;28;20462;-56
2022/05/09 03:43:00;;;;;;;2.95;0.90;;;20.50;51.50;;;;;;5013031;28;20053;-57
2022/05/09 03:45:26;;;;;;;3.10;0.95;;;20.50;51.40;;;;;;5013199;28;20045;-57
2022/05/09 03:47:52;;;;;;;2.38;1.02;;;20.50;51.50;;;;;;5012219;28;20054;-57
2022/05/09 03:50:17;;;;;;;3.67;0.90;;;20.50;51.50;;;;;;5013222;28;20042;-56
2022/05/09 03:52:43;;;;;;;3.90;0.90;;;20.50;51.60;;;;;;5012184;28;20048;-57
2022/05/09 03:55:09;;;;;;;2.28;0.93;;;20.50;51.60;;;;;;5013260;28;20050;-56
2022/05/09 03:57:43;;;;;;;2.33;0.80;;;20.60;51.70;;;;;;5013069;28;20041;-56
2022/05/09 04:00:09;;;;;;;3.97;1.00;;;20.50;51.70;;;;;;5010817;28;20042;-56
2022/05/09 04:02:35;;;;;;;2.85;0.82;;;20.60;51.80;;;;;;5004606;28;20493;-57
2022/05/09 04:05:01;;;;;;;3.75;1.20;;;20.60;51.80;;;;;;5012055;28;20387;-56
2022/05/09 04:07:26;;;;;;;2.78;0.95;;;20.60;51.70;;;;;;5011832;28;20053;-56
2022/05/09 04:09:52;;;;;;;2.63;0.90;;;20.60;51.70;;;;;;5012493;28;20550;-57
2022/05/09 04:12:18;;;;;;;3.10;0.90;;;20.50;51.70;;;;;;5012647;28;20054;-56
2022/05/09 04:17:27;;;;;;;2.78;1.00;;;20.50;51.60;;;;;;5012702;28;20417;-57
2022/05/09 04:19:53;;;;;;;4.53;1.15;;;20.60;51.60;;;;;;5012491;28;20046;-57
2022/05/09 04:22:19;;;;;;;3.25;0.98;;;20.50;51.50;;;;;;5011956;28;20046;-57
2022/05/09 04:24:45;;;;;;;2.95;1.10;;;20.60;51.60;;;;;;5012605;28;20038;-56
2022/05/09 04:27:10;;;;;;;2.97;0.90;;;20.50;51.40;;;;;;5012833;28;20458;-56
2022/05/09 04:29:36;;;;;;;3.58;1.00;;;20.60;51.50;;;;;;5012131;28;20030;-57
2022/05/09 04:32:02;;;;;;;4.75;1.27;;;20.60;51.50;;;;;;5012455;28;20065;-57
2022/05/09 04:34:27;;;;;;;2.47;0.82;;;20.50;51.50;;;;;;5013526;28;20362;-57
2022/05/09 04:36:53;;;;;;;4.00;1.13;;;20.60;51.60;;;;;;5015851;28;20132;-57
2022/05/09 04:39:20;;;;;;;3.13;0.80;;;20.60;51.60;;;;;;5016440;28;20398;-57
2022/05/09 04:41:46;;;;;;;4.40;1.27;;;20.60;51.70;;;;;;5016276;28;20049;-57
2022/05/09 04:44:11;;;;;;;4.30;1.15;;;20.60;51.70;;;;;;5015822;28;20046;-57
2022/05/09 04:46:37;;;;;;;2.95;0.95;;;20.60;51.70;;;;;;5016657;28;20073;-57
2022/05/09 04:49:03;;;;;;;2.97;0.95;;;20.60;51.80;;;;;;5015735;28;20144;-57
2022/05/09 04:51:28;;;;;;;2.75;1.02;;;20.60;51.80;;;;;;5016386;28;20041;-57
2022/05/09 04:53:54;;;;;;;3.58;0.93;;;20.60;51.70;;;;;;5016143;28;20080;-56
2022/05/09 04:56:19;;;;;;;2.42;1.27;;;20.60;51.70;;;;;;5015761;28;20053;-57
2022/05/09 04:58:45;;;;;;;3.60;1.20;;;20.60;51.60;;;;;;5016053;28;20049;-57
2022/05/09 05:01:11;;;;;;;3.78;1.20;;;20.70;51.60;;;;;;5016326;28;20061;-57
2022/05/09 05:03:36;;;;;;;5.47;1.10;;;20.70;51.60;;;;;;5015773;28;20042;-56
2022/05/09 05:06:03;;;;;;;2.88;1.10;;;20.70;51.50;;;;;;5015964;28;20054;-57
2022/05/09 05:08:33;;;;;;;3.25;1.00;;;20.70;51.50;;;;;;5016256;28;20042;-57
2022/05/09 05:10:59;;;;;;;2.95;1.30;;;20.80;51.50;;;;;;5015149;28;20054;-57
2022/05/09 05:13:25;;;;;;;3.22;1.10;;;20.80;51.40;;;;;;5015894;28;20124;-57
2022/05/09 05:15:50;;;;;;;3.15;1.15;;;20.80;51.40;;;;;;5014711;28;20627;-57
2022/05/09 05:18:26;;;;;;;3.95;1.17;;;20.80;51.40;;;;;;5015310;28;20045;-57
2022/05/09 05:20:51;;;;;;;2.60;0.90;;;20.80;51.40;;;;;;5015504;28;20481;-57
2022/05/09 05:23:17;;;;;;;3.50;1.00;;;20.90;51.40;;;;;;5015778;28;20056;-56
2022/05/09 05:25:45;;;;;;;4.53;1.10;;;20.90;51.50;;;;;;5014927;28;20046;-57
2022/05/09 05:28:14;;;;;;;3.55;0.98;;;20.90;51.50;;;;;;5015892;28;20049;-57
2022/05/09 05:30:40;;;;;;;4.10;1.00;;;20.90;51.60;;;;;;5015535;28;20046;-56
2022/05/09 05:33:06;;;;;;;4.82;1.10;;;21.00;51.60;;;;;;5015093;28;20125;-57
2022/05/09 05:35:31;;;;;;;4.85;1.33;;;21.00;51.70;;;;;;5015623;28;20046;-56
2022/05/09 05:37:57;;;;;;;3.10;0.85;;;21.00;51.90;;;;;;5015377;28;20154;-56
2022/05/09 05:40:22;;;;;;;3.53;1.00;;;21.00;51.90;;;;;;5014961;28;20093;-57
2022/05/09 05:42:48;;;;;;;5.03;1.17;;;21.10;52.00;;;;;;5015176;28;20122;-57
2022/05/09 05:45:15;;;;;;;3.42;0.82;;;21.10;52.20;;;;;;5014727;28;20038;-56
2022/05/09 05:47:41;;;;;;;3.70;1.00;;;21.10;52.30;;;;;;5014246;28;20398;-57
2022/05/09 05:50:08;;;;;;;2.70;1.15;;;21.10;52.30;;;;;;5015236;28;20037;-56
2022/05/09 05:52:33;;;;;;;3.95;1.00;;;21.10;52.40;;;;;;5014552;28;20049;-57
2022/05/09 05:54:59;;;;;;;3.03;0.90;;;21.10;52.50;;;;;;5015344;28;20046;-56
2022/05/09 05:57:26;;;;;;;9.85;1.05;;;21.10;52.50;;;;;;5015031;28;20134;-56
2022/05/09 06:00:02;;;;;;;7.38;1.13;;;21.20;52.70;;;;;;5013199;28;20145;-56
2022/05/09 06:02:28;;;;;;;2.67;1.00;;;21.10;52.70;;;;;;5015084;28;20037;-56
2022/05/09 06:04:53;;;;;;;3.67;1.20;;;21.20;52.80;;;;;;5014753;28;20088;-56
2022/05/09 06:07:19;;;;;;;3.08;0.90;;;21.20;52.90;;;;;;5014555;28;20379;-57
2022/05/09 06:09:45;;;;;;;4.97;1.20;;;21.20;52.90;;;;;;5014771;28;20037;-57
2022/05/09 06:12:11;;;;;;;4.40;1.20;;;21.20;52.90;;;;;;5014925;28;20145;-57
2022/05/09 06:14:37;;;;;;;4.90;1.15;;;21.20;53.00;;;;;;5014049;28;20049;-57
2022/05/09 06:17:04;;;;;;;4.40;1.00;;;21.20;53.00;;;;;;5014315;28;20053;-58
2022/05/09 06:19:30;;;;;;;5.32;1.10;;;21.20;53.10;;;;;;5014816;28;20037;-57
2022/05/09 06:21:56;;;;;;;3.67;1.17;;;21.20;53.20;;;;;;5013509;28;20049;-57
2022/05/09 06:24:21;;;;;;;3.80;1.00;;;21.20;53.30;;;;;;5014702;28;20472;-57
2022/05/09 06:26:48;;;;;;;6.50;1.05;;;21.30;53.40;;;;;;5014349;28;20052;-57
2022/05/09 06:29:14;;;;;;;6.65;1.45;;;21.30;53.60;;;;;;5013933;28;20052;-57
2022/05/09 06:31:39;;;;;;;4.97;1.23;;;21.30;53.70;;;;;;5014308;28;20128;-57
2022/05/09 06:34:06;;;;;;;4.28;1.05;;;21.30;53.70;;;;;;5014492;28;20120;-59
2022/05/09 06:36:36;;;;;;;5.03;1.17;;;21.40;53.80;;;;;;5013714;28;20045;-58
2022/05/09 06:39:02;;;;;;;5.10;1.13;;;21.30;53.90;;;;;;5014078;28;20045;-57
2022/05/09 06:41:28;;;;;;;7.22;1.00;;;21.40;54.00;;;;;;5013839;28;20042;-57
2022/05/09 06:43:53;;;;;;;5.68;1.20;;;21.40;54.00;;;;;;5013981;28;20165;-57
2022/05/09 06:46:19;;;;;;;3.70;1.20;;;21.40;54.00;;;;;;5014059;28;20037;-57
2022/05/09 06:48:45;;;;;;;4.85;1.20;;;21.40;54.10;;;;;;5013304;28;20609;-57
2022/05/09 06:51:10;;;;;;;6.00;1.30;;;21.40;54.30;;;;;;5014001;28;20494;-57
2022/05/09 06:53:36;;;;;;;5.22;1.13;;;21.40;54.30;;;;;;5014374;28;20120;-57
2022/05/09 06:56:01;;;;;;;5.47;1.40;;;21.40;54.30;;;;;;5012915;28;20045;-57
2022/05/09 06:58:27;;;;;;;3.78;1.00;;;21.40;54.30;;;;;;5013975;28;20069;-57
2022/05/09 07:00:53;;;;;;;4.78;1.10;;;21.40;54.30;;;;;;5013868;28;20042;-56
2022/05/09 07:03:19;;;;;;;5.78;1.40;;;21.40;54.30;;;;;;5013177;28;20145;-57
2022/05/09 07:05:45;;;;;;;5.10;1.30;;;21.30;54.20;;;;;;5013805;28;20160;-57
2022/05/09 07:08:11;;;;;;;2.80;1.35;;;21.40;54.30;;;;;;5014301;28;20164;-57
2022/05/09 07:10:37;;;;;;;5.45;1.20;;;21.30;54.30;;;;;;5013133;28;20037;-57
2022/05/09 07:13:04;;;;;;;4.78;1.30;;;21.30;54.20;;;;;;5013603;28;20061;-57
2022/05/09 07:15:30;;;;;;;5.10;1.10;;;21.30;54.30;;;;;;5012524;28;20046;-56
2022/05/09 07:17:58;;;;;;;7.88;1.63;;;21.30;54.30;;;;;;5012681;28;20038;-57
2022/05/09 07:20:25;;;;;;;5.85;1.33;;;21.30;54.10;;;;;;5013059;28;20050;-57
2022/05/09 07:22:52;;;;;;;5.30;1.17;;;21.30;54.00;;;;;;5013207;28;20045;-56
2022/05/09 07:25:21;;;;;;;4.85;1.15;;;21.30;54.00;;;;;;5012939;28;20080;-56
2022/05/09 07:27:46;;;;;;;7.38;1.23;;;21.30;54.20;;;;;;5013281;28;20042;-56
2022/05/09 07:30:13;;;;;;;5.07;1.10;;;21.30;54.20;;;;;;5013410;28;20133;-56
2022/05/09 07:32:39;;;;;;;6.55;1.17;;;21.30;54.30;;;;;;5012327;28;20061;-56
2022/05/09 07:35:06;;;;;;;6.43;1.30;;;21.30;54.30;;;;;;5012823;28;20037;-57
2022/05/09 07:37:31;;;;;;;7.38;1.20;;;21.30;54.40;;;;;;5013218;28;20046;-56
2022/05/09 07:39:56;;;;;;;6.15;1.38;;;21.30;54.30;;;;;;5012400;28;20038;-57
2022/05/09 07:42:22;;;;;;;5.95;1.15;;;21.30;54.20;;;;;;5013325;28;20134;-57
2022/05/09 07:44:48;;;;;;;6.13;1.30;;;21.30;54.00;;;;;;5012190;28;20438;-56
2022/05/09 07:47:14;;;;;;;6.07;1.48;;;21.30;54.00;;;;;;5013495;28;20140;-57
2022/05/09 07:49:39;;;;;;;3.53;1.13;;;21.30;53.80;;;;;;5013026;28;20533;-57
2022/05/09 07:52:07;;;;;;;6.30;1.65;;;21.30;53.80;;;;;;5012464;28;20041;-56
2022/05/09 07:54:33;;;;;;;10.77;2.47;;;21.30;53.80;;;;;;5012940;28;20069;-56
2022/05/09 07:56:58;;;;;;;7.97;1.92;;;21.30;53.80;;;;;;5012813;28;20085;-56
2022/05/09 07:59:24;;;;;;;9.40;2.25;;;21.30;53.80;;;;;;5012520;28;20046;-56
2022/05/09 08:01:49;;;;;;;10.82;2.67;;;21.30;53.80;;;;;;5012901;28;20045;-56
2022/05/09 08:04:15;;;;;;;9.88;2.75;;;21.30;53.80;;;;;;5013231;28;20041;-57
2022/05/09 08:06:40;;;;;;;8.57;2.60;;;21.30;53.80;;;;;;5011949;28;20050;-56
2022/05/09 08:09:06;;;;;;;11.85;2.80;;;21.30;53.90;;;;;;5012684;28;20489;-57
2022/05/09 08:11:32;;;;;;;8.77;2.60;;;21.30;53.80;;;;;;5012658;28;20512;-57
2022/05/09 08:13:57;;;;;;;8.73;2.65;;;21.30;53.90;;;;;;5011728;28;20137;-56
2022/05/09 08:16:26;;;;;;;10.40;3.10;;;21.30;54.00;;;;;;5012942;28;20042;-56
2022/05/09 08:18:52;;;;;;;11.20;3.17;;;21.30;54.10;;;;;;5012736;28;20054;-56
2022/05/09 08:21:18;;;;;;;11.32;2.75;;;21.30;54.20;;;;;;5011691;28;20042;-57
2022/05/09 08:23:43;;;;;;;11.93;3.10;;;21.30;54.20;;;;;;5005477;28;20068;-57
2022/05/09 08:26:09;;;;;;;10.10;2.65;;;21.30;54.20;;;;;;5008374;28;20038;-56
2022/05/09 08:28:34;;;;;;;8.30;3.13;;;21.30;54.30;;;;;;5011757;28;20440;-56
2022/05/09 08:31:00;;;;;;;10.93;2.70;;;21.30;54.40;;;;;;5011547;28;20045;-56
2022/05/09 08:33:26;;;;;;;10.98;3.10;;;21.30;54.50;;;;;;5010819;28;20100;-56
2022/05/09 08:35:53;;;;;;;10.48;3.25;;;21.40;54.60;;;;;;5010912;28;20084;-57
2022/05/09 08:38:21;;;;;;;9.90;3.40;;;21.30;54.60;;;;;;5012294;28;20049;-56
2022/05/09 08:40:55;;;;;;;10.55;2.90;;;21.40;54.70;;;;;;5011869;28;20437;-56
2022/05/09 08:43:45;;;;;;;9.48;2.85;;;21.40;54.80;;;;;;5012529;28;20054;-56
2022/05/09 08:46:36;;;;;;;8.40;2.60;;;21.40;54.90;;;;;;5011759;28;20393;-57
2022/05/09 08:49:32;;;;;;;11.88;3.05;;;21.40;54.90;;;;;;5011572;28;20046;-56
2022/05/09 08:52:31;;;;;;;7.72;2.80;;;21.40;55.00;;;;;;5003082;28;20412;-57
2022/05/09 08:54:56;;;;;;;9.02;3.03;;;21.40;55.10;;;;;;5011000;28;20046;-56
2022/05/09 08:57:31;;;;;;;10.45;2.70;;;21.40;55.10;;;;;;5010591;28;20046;-57
2022/05/09 09:00:00;;;;;;;8.73;2.80;;;21.40;55.30;;;;;;5010987;28;20057;-57
2022/05/09 09:02:33;;;;;;;9.80;3.05;;;21.40;55.30;;;;;;5010429;28;20507;-57
2022/05/09 09:04:59;;;;;;;9.68;3.03;;;21.40;55.40;;;;;;5010827;28;20135;-57
2022/05/09 09:07:48;;;;;;;8.32;2.47;;;21.40;55.40;;;;;;5010999;28;20121;-57
2022/05/09 09:10:32;;;;;;;7.45;2.65;;;21.40;55.50;;;;;;5008830;28;20038;-57
2022/05/09 09:12:58;;;;;;;9.10;2.80;;;21.40;55.30;;;;;;5010804;28;20085;-56
2022/05/09 09:15:28;;;;;;;6.30;2.20;;;21.40;55.30;;;;;;5012390;28;20046;-56
2022/05/09 09:18:13;;;;;;;7.25;2.00;;;21.40;55.30;;;;;;5010041;28;20511;-57
2022/05/09 09:20:47;;;;;;;9.60;2.58;;;21.40;55.40;;;;;;5012018;28;20056;-57
2022/05/09 09:24:00;;;;;;;7.05;2.22;;;21.40;55.20;;;;;;5014084;28;20104;-57
2022/05/09 09:26:45;;;;;;;9.05;2.60;;;21.30;54.50;;;;;;5003815;28;20093;-57
2022/05/09 09:29:20;;;;;;;6.35;2.10;;;21.30;54.50;;;;;;5015017;28;20125;-57
2022/05/09 09:31:47;;;;;;;6.57;2.25;;;21.30;54.60;;;;;;5013801;28;20073;-57
2022/05/09 09:34:29;;;;;;;11.38;2.63;;;21.30;54.60;;;;;;5014869;28;20056;-57
2022/05/09 09:37:08;;;;;;;7.88;2.03;;;21.30;54.70;;;;;;5013994;28;20129;-57
2022/05/09 09:39:34;;;;;;;7.40;2.30;;;21.30;54.80;;;;;;5014248;28;20207;-57
2022/05/09 09:41:59;;;;;;;8.52;2.50;;;21.30;54.80;;;;;;5015590;28;20125;-57
2022/05/09 09:44:26;;;;;;;7.25;2.65;;;21.30;54.80;;;;;;5015036;28;20124;-57
2022/05/09 09:47:19;;;;;;;6.90;2.20;;;21.20;55.50;;;;;;5014336;28;20046;-57
2022/05/09 09:49:48;;;;;;;6.88;2.47;;;21.30;55.00;;;;;;5015414;28;20042;-57
2022/05/09 09:52:20;;;;;;;6.32;2.38;;;21.30;55.00;;;;;;5014700;28;20042;-57
2022/05/09 09:55:01;;;;;;;6.05;2.60;;;21.30;55.00;;;;;;5015186;28;20081;-57
2022/05/09 09:57:35;;;;;;;6.40;2.13;;;21.30;55.00;;;;;;5015649;28;20056;-57
2022/05/09 10:00:21;;;;;;;7.35;2.28;;;21.30;55.20;;;;;;5014324;28;20056;-57
2022/05/09 10:02:47;;;;;;;7.38;2.08;;;21.20;55.10;;;;;;5015292;28;20563;-57
2022/05/09 10:05:16;;;;;;;6.38;2.25;;;21.20;55.10;;;;;;5015230;28;20050;-57
2022/05/09 10:07:44;;;;;;;6.43;2.40;;;21.20;55.10;;;;;;5014248;28;20081;-57
2022/05/09 10:10:20;;;;;;;6.70;2.38;;;21.20;55.20;;;;;;5014128;28;20106;-57
2022/05/09 10:12:51;;;;;;;7.63;2.38;;;21.20;55.20;;;;;;5012558;28;20141;-57
2022/05/09 10:15:29;;;;;;;5.80;2.25;;;21.20;56.00;;;;;;5015397;28;20069;-57
2022/05/09 10:17:56;;;;;;;6.70;2.10;;;21.20;56.10;;;;;;5014943;28;20121;-57
2022/05/09 10:20:50;;;;;;;7.18;2.22;;;21.20;55.40;;;;;;5014029;28;20494;-57
2022/05/09 10:26:14;;;;;;;8.43;2.78;;;21.20;55.40;;;;;;5014968;28;20050;-57
2022/05/09 10:28:44;;;;;;;;;;;21.20;55.40;;;;;;5014316;28;20054;-57
2022/05/09 10:31:24;;;;;;;4.85;1.85;;;21.20;55.40;;;;;;5030032;28;20265;-57
2022/05/09 10:33:55;;;;;;;7.07;2.20;;;21.20;55.40;;;;;;5012330;28;20056;-57
2022/05/09 10:36:27;;;;;;;8.55;2.40;;;21.20;55.40;;;;;;5014708;28;20046;-57
2022/05/09 10:39:00;;;;;;;6.53;2.30;;;21.20;55.50;;;;;;5013466;28;20075;-57
2022/05/09 10:41:52;;;;;;;8.02;2.42;;;21.20;55.40;;;;;;5012844;28;20084;-57
2022/05/09 10:44:29;;;;;;;7.10;1.92;;;21.20;55.50;;;;;;5013097;28;20057;-57
2022/05/09 10:47:15;;;;;;;6.10;2.13;;;21.20;55.50;;;;;;5013216;28;20034;-57
2022/05/09 10:50:21;;;;;;;5.35;2.00;;;21.20;55.50;;;;;;5012212;28;20038;-57
2022/05/09 10:52:55;;;;;;;9.05;1.85;;;21.20;55.50;;;;;;5014308;28;20049;-56
2022/05/09 10:55:39;;;;;;;4.10;1.60;;;21.20;55.80;;;;;;5013729;28;20049;-57
2022/05/09 10:58:43;;;;;;;5.30;1.88;;;21.20;55.50;;;;;;5013421;28;20478;-57
2022/05/09 11:01:12;;;;;;;5.20;2.33;;;21.20;55.50;;;;;;4992439;28;20046;-57
2022/05/09 11:03:41;;;;;;;6.40;1.75;;;21.20;55.60;;;;;;5005299;28;20417;-57
2022/05/09 11:06:16;;;;;;;5.15;2.03;;;21.20;55.60;;;;;;5014027;28;20045;-57
2022/05/09 11:09:09;;;;;;;5.85;2.00;;;21.20;55.60;;;;;;5013278;28;20049;-57
2022/05/09 11:11:47;;;;;;;6.95;1.90;;;21.20;55.60;;;;;;5012727;28;20452;-57
2022/05/09 11:14:28;;;;;;;5.85;1.95;;;21.20;55.60;;;;;;5014212;28;20053;-56
2022/05/09 11:17:28;;;;;;;5.88;1.88;;;21.20;55.70;;;;;;5011718;28;20046;-57
2022/05/09 11:19:58;;;;;;;4.25;1.92;;;21.20;55.60;;;;;;5013740;28;20128;-57
2022/05/09 11:22:28;;;;;;;3.95;1.50;;;21.20;55.70;;;;;;5012701;28;20050;-57
2022/05/09 11:25:27;;;;;;;4.65;1.75;;;21.20;55.70;;;;;;5011624;28;20046;-57
2022/05/09 11:28:38;;;;;;;5.03;1.63;;;21.20;55.60;;;;;;5012462;28;20117;-57
2022/05/09 11:31:28;;;;;;;5.70;1.70;;;21.20;55.60;;;;;;5004592;28;20058;-56
2022/05/09 11:34:32;;;;;;;6.32;1.85;;;21.20;55.60;;;;;;5012200;28;20049;-57
2022/05/09 11:37:22;;;;;;;4.80;1.45;;;21.20;55.60;;;;;;5011112;28;20058;-56
2022/05/09 11:40:01;;;;;;;5.18;1.80;;;21.20;55.50;;;;;;5012213;28;20042;-57
2022/05/09 11:45:43;;;;;;;3.22;1.33;;;21.20;55.60;;;;;;5011379;28;20053;-57
2022/05/09 11:48:35;;;;;;;3.53;1.40;;;21.20;55.60;;;;;;5012535;28;20049;-57
2022/05/09 11:51:22;;;;;;;5.32;1.60;;;21.20;55.60;;;;;;5011248;28;20042;-57
2022/05/09 11:53:50;;;;;;;4.47;1.60;;;21.20;55.60;;;;;;5013116;28;20080;-57
2022/05/09 11:56:16;;;;;;;4.50;1.58;;;21.20;55.60;;;;;;5011968;28;20121;-57
2022/05/09 11:58:43;;;;;;;7.93;1.50;;;21.30;55.60;;;;;;5011184;28;20124;-57
2022/05/09 12:01:08;;;;;;;5.32;2.03;;;21.30;55.70;;;;;;5012998;28;20037;-57
2022/05/09 12:03:40;;;;;;;3.28;1.30;;;21.30;55.60;;;;;;5012231;28;20133;-57
2022/05/09 12:06:25;;;;;;;2.72;1.20;;;21.30;55.70;;;;;;5012410;28;20121;-57
2022/05/09 12:08:50;;;;;;;3.03;1.58;;;21.30;55.60;;;;;;5012802;28;20044;-57
2022/05/09 12:11:46;;;;;;;4.30;1.83;;;21.20;55.60;;;;;;5013188;28;20136;-57
2022/05/09 12:14:11;;;;;;;4.32;1.48;;;21.30;55.60;;;;;;5012466;28;20049;-57
2022/05/09 12:16:37;;;;;;;7.22;1.40;;;21.30;55.60;;;;;;5011700;28;20042;-57
2022/05/09 12:19:13;;;;;;;3.00;1.30;;;21.30;55.70;;;;;;5012163;28;20129;-57
2022/05/09 12:21:38;;;;;;;3.80;1.50;;;21.30;55.60;;;;;;5011411;28;20042;-57
2022/05/09 12:24:20;;;;;;;4.15;1.30;;;21.30;55.60;;;;;;5012948;28;20497;-57
2022/05/09 12:26:53;;;;;;;2.92;1.30;;;21.30;55.60;;;;;;5012168;28;20066;-57
2022/05/09 12:29:19;;;;;;;3.55;1.50;;;21.30;55.60;;;;;;5011961;28;20043;-57
2022/05/09 12:31:49;;;;;;;4.03;1.55;;;21.30;55.60;;;;;;5012769;28;20413;-57
2022/05/09 12:34:17;;;;;;;3.38;1.48;;;21.30;55.70;;;;;;5010900;28;20049;-57
2022/05/09 12:36:44;;;;;;;4.60;1.65;;;21.30;55.70;;;;;;5012560;28;20074;-57
2022/05/09 12:39:17;;;;;;;4.30;1.20;;;21.30;55.70;;;;;;5012936;28;20058;-57
2022/05/09 12:41:53;;;;;;;4.90;1.42;;;21.30;55.70;;;;;;5010620;28;20049;-57
2022/05/09 12:44:18;;;;;;;3.45;1.45;;;21.30;55.60;;;;;;5011801;28;20040;-57
2022/05/09 12:46:50;;;;;;;4.40;1.30;;;21.40;55.60;;;;;;5012361;28;20038;-57
2022/05/09 12:49:17;;;;;;;2.97;1.38;;;21.40;55.60;;;;;;5010697;28;20409;-57
2022/05/09 12:51:45;;;;;;;5.35;1.67;;;21.40;55.60;;;;;;5011208;28;20034;-57
2022/05/09 12:54:12;;;;;;;3.42;1.42;;;21.40;55.60;;;;;;5011092;28;20057;-57
2022/05/09 12:56:39;;;;;;;4.40;1.63;;;21.40;55.60;;;;;;5014188;28;20100;-56
2022/05/09 12:59:08;;;;;;;3.53;1.45;;;21.40;55.50;;;;;;5015178;28;20054;-57
2022/05/09 13:01:34;;;;;;;3.95;1.33;;;21.40;55.50;;;;;;5015527;28;20410;-57
2022/05/09 13:04:02;;;;;;;2.90;1.33;;;21.50;56.10;;;;;;5016373;28;20053;-57
2022/05/09 13:06:38;;;;;;;;;;;21.40;55.40;;;;;;5016857;28;20091;-57
2022/05/09 13:09:13;;;;;;;3.53;1.85;;;21.40;55.30;;;;;;5015677;28;19929;-57
2022/05/09 13:11:38;;;;;;;3.15;1.05;;;21.50;55.40;;;;;;5016076;28;20050;-58
2022/05/09 13:14:17;;;;;;;4.13;1.30;;;21.50;55.40;;;;;;5016436;28;20393;-57
2022/05/09 13:17:01;;;;;;;3.38;1.20;;;21.50;55.40;;;;;;5013871;28;20048;-57